Time;durP1;ratioP1;P1;durP2;ratioP2;P2;SDS_P1;SDS_P2;PMS_P1;PMS_P2;Temp;Humidity;BMP_temperature;BMP_pressure;BME280_temperature;BME280_humidity;BME280_pressure;Samples;Min_cycle;Max_cycle;Signal;HPM_P1;HPM_P2
2023/07/23 00:02:16;;;;;;;8.07;4.40;;;13.20;65.80;;;;;;4984071;28;20217;-64
2023/07/23 00:04:44;;;;;;;6.10;4.00;;;13.30;66.30;;;;;;4987344;28;20272;-64
2023/07/23 00:07:11;;;;;;;4.33;2.70;;;13.40;65.40;;;;;;4985535;28;20229;-64
2023/07/23 00:09:38;;;;;;;7.43;3.30;;;13.40;65.10;;;;;;4983796;28;20540;-63
2023/07/23 00:12:06;;;;;;;7.03;3.23;;;13.50;65.60;;;;;;4979138;28;20269;-64
2023/07/23 00:14:33;;;;;;;5.57;3.50;;;13.60;65.60;;;;;;4981836;28;20553;-64
2023/07/23 00:17:00;;;;;;;4.47;3.03;;;13.70;65.40;;;;;;4984930;28;20178;-64
2023/07/23 00:19:28;;;;;;;4.77;2.97;;;13.80;65.80;;;;;;4987699;28;20229;-64
2023/07/23 00:21:55;;;;;;;6.20;3.20;;;14.00;65.10;;;;;;4983707;28;20824;-64
2023/07/23 00:24:22;;;;;;;6.37;3.17;;;14.10;64.60;;;;;;4987217;28;20180;-63
2023/07/23 00:26:49;;;;;;;6.80;3.77;;;14.30;64.70;;;;;;4984363;28;20953;-65
2023/07/23 00:29:17;;;;;;;5.67;2.83;;;14.30;64.20;;;;;;4982839;28;20189;-64
2023/07/23 00:31:44;;;;;;;5.60;2.90;;;14.40;64.40;;;;;;4986878;28;20225;-64
2023/07/23 00:34:11;;;;;;;8.53;3.17;;;14.50;64.00;;;;;;4986106;28;20659;-63
2023/07/23 00:36:39;;;;;;;5.57;2.50;;;14.70;64.40;;;;;;4988457;28;20200;-65
2023/07/23 00:39:07;;;;;;;5.70;3.33;;;14.80;64.20;;;;;;4989908;28;20613;-63
2023/07/23 00:41:34;;;;;;;4.13;2.70;;;14.80;64.40;;;;;;4982558;28;20195;-63
2023/07/23 00:44:03;;;;;;;5.97;2.97;;;14.80;64.40;;;;;;4984287;28;20588;-64
2023/07/23 00:46:31;;;;;;;6.53;2.90;;;14.80;64.70;;;;;;4982439;28;20773;-63
2023/07/23 00:49:01;;;;;;;5.87;3.00;;;15.00;64.20;;;;;;4983392;28;20644;-63
2023/07/23 00:51:31;;;;;;;6.43;2.80;;;15.10;64.40;;;;;;4985051;28;20669;-64
2023/07/23 00:53:59;;;;;;;9.90;2.33;;;15.30;62.90;;;;;;4983506;28;20257;-64
2023/07/23 00:56:26;;;;;;;6.53;2.67;;;15.30;63.80;;;;;;4983550;28;20251;-64
2023/07/23 00:58:54;;;;;;;7.97;2.70;;;15.40;63.30;;;;;;4986436;28;20214;-64
2023/07/23 01:01:21;;;;;;;3.70;2.50;;;15.50;63.00;;;;;;4982760;28;20220;-64
2023/07/23 01:03:50;;;;;;;3.10;2.20;;;15.60;62.70;;;;;;4983761;28;20295;-63
2023/07/23 01:06:20;;;;;;;4.17;2.23;;;15.80;62.70;;;;;;4984110;28;20252;-63
2023/07/23 01:08:49;;;;;;;5.37;2.63;;;16.10;62.80;;;;;;4980668;28;20193;-64
2023/07/23 01:11:17;;;;;;;5.47;2.43;;;16.30;62.50;;;;;;4986437;28;20291;-65
2023/07/23 01:13:45;;;;;;;10.43;2.43;;;16.60;62.70;;;;;;4984883;28;20316;-63
2023/07/23 01:16:13;;;;;;;9.03;2.70;;;16.80;62.80;;;;;;4977885;28;20555;-64
2023/07/23 01:18:41;;;;;;;4.17;2.47;;;16.80;63.40;;;;;;4979710;28;20654;-65
2023/07/23 01:21:10;;;;;;;9.50;2.47;;;16.80;63.30;;;;;;4981289;28;20207;-64
2023/07/23 01:23:37;;;;;;;9.40;2.20;;;16.80;63.20;;;;;;4983871;28;20658;-64
2023/07/23 01:26:07;;;;;;;6.90;2.47;;;16.90;63.10;;;;;;4982383;28;20196;-65
2023/07/23 01:28:35;;;;;;;7.53;2.40;;;17.20;63.40;;;;;;4982147;28;20193;-65
2023/07/23 01:31:03;;;;;;;7.87;2.70;;;17.30;61.20;;;;;;4983121;28;20231;-65
2023/07/23 01:33:30;;;;;;;6.17;2.03;;;17.30;62.30;;;;;;4984045;28;20198;-67
2023/07/23 01:35:59;;;;;;;7.87;2.37;;;17.40;61.40;;;;;;4983324;28;20221;-67
2023/07/23 01:38:27;;;;;;;10.70;2.53;;;17.30;61.00;;;;;;4983172;28;20344;-64
2023/07/23 01:40:54;;;;;;;8.57;2.00;;;17.40;61.80;;;;;;4979691;28;20201;-68
2023/07/23 01:43:22;;;;;;;6.13;2.13;;;17.60;61.60;;;;;;4979889;28;20657;-64
2023/07/23 01:45:50;;;;;;;6.47;2.60;;;17.50;61.80;;;;;;4986256;28;20280;-67
2023/07/23 01:48:17;;;;;;;5.77;2.50;;;17.50;62.20;;;;;;4979999;28;20188;-65
2023/07/23 01:50:45;;;;;;;6.23;2.00;;;17.50;61.80;;;;;;4979283;28;20243;-63
2023/07/23 01:53:12;;;;;;;6.10;1.80;;;17.80;60.70;;;;;;4983180;28;20557;-63
2023/07/23 01:55:39;;;;;;;6.53;2.33;;;17.80;59.30;;;;;;4984731;28;20209;-64
2023/07/23 01:58:07;;;;;;;5.07;2.07;;;17.80;60.30;;;;;;4983065;28;20194;-64
2023/07/23 02:00:34;;;;;;;5.37;1.97;;;18.10;59.40;;;;;;4982710;28;20252;-63
2023/07/23 02:03:02;;;;;;;7.77;1.80;;;18.20;57.60;;;;;;4983848;28;20280;-65
2023/07/23 02:05:30;;;;;;;4.93;2.20;;;18.10;57.30;;;;;;4979808;28;20198;-65
2023/07/23 02:07:57;;;;;;;5.53;1.70;;;18.20;56.40;;;;;;4981589;28;20189;-66
2023/07/23 02:10:25;;;;;;;5.17;1.87;;;18.20;55.60;;;;;;4982941;28;20221;-65
2023/07/23 02:12:52;;;;;;;2.63;1.70;;;18.30;54.40;;;;;;4979987;28;20641;-65
2023/07/23 02:15:19;;;;;;;5.13;1.53;;;18.40;53.40;;;;;;4982197;28;20186;-67
2023/07/23 02:17:47;;;;;;;9.57;2.10;;;18.40;52.20;;;;;;4982319;28;20190;-67
2023/07/23 02:20:14;;;;;;;4.47;1.73;;;18.20;51.90;;;;;;4983303;28;20193;-64
2023/07/23 02:22:41;;;;;;;3.43;1.50;;;18.20;51.30;;;;;;4985185;28;20210;-64
2023/07/23 02:25:09;;;;;;;4.43;1.37;;;18.40;50.70;;;;;;4988895;28;20197;-64
2023/07/23 02:27:37;;;;;;;2.93;1.63;;;18.50;50.10;;;;;;4988515;28;20184;-64
2023/07/23 02:30:06;;;;;;;2.50;1.53;;;18.60;49.50;;;;;;4983968;28;20201;-64
2023/07/23 02:32:34;;;;;;;3.00;1.60;;;18.40;50.00;;;;;;4985226;28;20200;-73
2023/07/23 02:35:01;;;;;;;5.77;1.83;;;18.30;50.80;;;;;;4983996;28;20653;-67
2023/07/23 02:37:29;;;;;;;5.07;1.70;;;18.30;50.60;;;;;;4985853;28;20224;-64
2023/07/23 02:39:56;;;;;;;4.47;1.80;;;18.70;50.50;;;;;;4986152;28;20226;-66
2023/07/23 02:42:23;;;;;;;1.97;1.47;;;18.70;50.70;;;;;;4985902;28;20178;-69
2023/07/23 02:44:51;;;;;;;4.67;1.67;;;18.60;50.50;;;;;;4985477;28;20189;-65
2023/07/23 02:47:18;;;;;;;10.27;2.03;;;18.50;51.20;;;;;;4983294;28;20194;-72
2023/07/23 02:49:46;;;;;;;4.00;1.60;;;18.80;51.30;;;;;;4986630;28;20672;-71
2023/07/23 02:52:13;;;;;;;3.63;1.83;;;18.70;50.10;;;;;;4981805;28;20601;-66
2023/07/23 02:54:42;;;;;;;2.43;1.50;;;18.80;50.00;;;;;;4970789;28;20518;-65
2023/07/23 02:57:09;;;;;;;5.97;1.40;;;18.80;49.20;;;;;;4983282;28;20253;-65
2023/07/23 02:59:36;;;;;;;3.23;1.60;;;18.70;48.30;;;;;;4985521;28;20321;-65
2023/07/23 03:02:04;;;;;;;3.10;1.33;;;18.80;49.10;;;;;;4986030;28;20769;-65
2023/07/23 03:04:31;;;;;;;7.90;1.80;;;18.60;49.20;;;;;;4984661;28;20198;-66
2023/07/23 03:06:58;;;;;;;2.80;1.23;;;18.80;49.70;;;;;;4985377;28;20277;-64
2023/07/23 03:09:26;;;;;;;7.43;1.23;;;18.80;49.20;;;;;;4983385;28;20204;-65
2023/07/23 03:11:53;;;;;;;3.30;1.53;;;19.00;48.20;;;;;;4985893;28;20191;-65
2023/07/23 03:14:21;;;;;;;3.40;1.47;;;19.10;48.40;;;;;;4984708;28;20648;-64
2023/07/23 03:16:48;;;;;;;2.43;1.40;;;19.00;49.30;;;;;;4985227;28;20181;-65
2023/07/23 03:19:15;;;;;;;2.37;1.77;;;19.00;48.80;;;;;;4985730;28;20225;-64
2023/07/23 03:21:43;;;;;;;6.03;1.50;;;19.20;48.80;;;;;;4984594;28;20193;-65
2023/07/23 03:24:10;;;;;;;4.60;2.00;;;19.10;48.50;;;;;;4985267;28;20612;-68
2023/07/23 03:26:37;;;;;;;4.57;1.70;;;19.20;48.80;;;;;;4985204;28;20229;-68
2023/07/23 03:29:04;;;;;;;5.07;1.87;;;19.20;48.10;;;;;;4984879;28;20201;-66
2023/07/23 03:31:32;;;;;;;4.03;1.70;;;19.20;48.40;;;;;;4987020;28;20233;-64
2023/07/23 03:33:59;;;;;;;3.90;1.80;;;19.20;47.30;;;;;;4988181;28;20244;-65
2023/07/23 03:36:27;;;;;;;2.90;1.70;;;19.20;46.20;;;;;;4982726;28;20604;-66
2023/07/23 03:38:54;;;;;;;6.27;1.60;;;19.30;48.20;;;;;;4983589;28;20218;-65
2023/07/23 03:41:22;;;;;;;4.73;1.93;;;19.20;47.80;;;;;;4982883;28;20182;-67
2023/07/23 03:43:49;;;;;;;6.93;2.10;;;19.10;49.40;;;;;;4989597;28;20608;-64
2023/07/23 03:46:16;;;;;;;5.10;1.60;;;19.30;48.20;;;;;;4984542;28;20655;-64
2023/07/23 03:48:44;;;;;;;3.97;1.50;;;19.40;47.80;;;;;;4986674;28;20182;-66
2023/07/23 03:51:11;;;;;;;6.70;1.70;;;19.60;48.50;;;;;;4985278;28;20282;-68
2023/07/23 03:53:39;;;;;;;4.83;1.70;;;19.70;48.50;;;;;;4987225;28;20182;-65
2023/07/23 03:56:06;;;;;;;4.97;2.03;;;19.80;48.50;;;;;;4989136;28;20199;-65
2023/07/23 03:58:33;;;;;;;2.67;1.80;;;19.90;47.90;;;;;;4984167;28;20704;-64
2023/07/23 04:01:00;;;;;;;4.57;1.73;;;19.90;47.50;;;;;;4987914;28;20193;-66
2023/07/23 04:03:28;;;;;;;5.83;1.83;;;19.70;47.00;;;;;;4982582;28;20196;-66
2023/07/23 04:05:57;;;;;;;8.53;1.80;;;19.60;46.50;;;;;;4987995;28;20182;-64
2023/07/23 04:08:24;;;;;;;2.27;1.67;;;19.80;46.80;;;;;;4986026;28;20190;-65
2023/07/23 04:10:55;;;;;;;5.23;1.83;;;20.00;45.80;;;;;;4985744;28;20183;-65
2023/07/23 04:13:23;;;;;;;4.47;1.80;;;20.00;44.50;;;;;;4967653;28;20193;-65
2023/07/23 04:15:50;;;;;;;4.17;1.50;;;19.90;44.40;;;;;;4986809;28;20197;-65
2023/07/23 04:18:18;;;;;;;1.47;1.20;;;20.00;44.40;;;;;;4989518;28;20218;-65
2023/07/23 04:20:45;;;;;;;3.50;1.67;;;20.20;43.80;;;;;;4983554;28;20220;-69
2023/07/23 04:23:13;;;;;;;2.67;1.27;;;19.80;43.20;;;;;;4983690;28;20178;-65
2023/07/23 04:25:40;;;;;;;1.93;1.33;;;20.00;42.80;;;;;;4986933;28;20272;-69
2023/07/23 04:28:08;;;;;;;5.10;1.40;;;20.50;42.00;;;;;;4978014;28;20186;-65
2023/07/23 04:30:35;;;;;;;2.03;1.17;;;20.30;41.70;;;;;;4987640;28;20594;-70
2023/07/23 04:33:02;;;;;;;4.40;1.40;;;20.30;41.30;;;;;;4989888;28;20194;-65
2023/07/23 04:35:30;;;;;;;4.87;1.53;;;20.00;42.30;;;;;;4981614;28;20190;-66
2023/07/23 04:37:57;;;;;;;2.83;1.37;;;20.30;41.40;;;;;;4986634;28;20182;-69
2023/07/23 04:40:24;;;;;;;2.87;1.40;;;20.50;40.90;;;;;;4985813;28;20210;-71
2023/07/23 04:42:52;;;;;;;4.27;1.50;;;20.70;40.70;;;;;;4986516;28;20272;-68
2023/07/23 04:45:19;;;;;;;5.70;1.60;;;20.40;41.80;;;;;;4988144;28;20649;-72
2023/07/23 04:47:46;;;;;;;5.57;1.67;;;20.40;41.90;;;;;;4985023;28;20668;-75
2023/07/23 04:50:14;;;;;;;6.33;1.50;;;20.50;42.10;;;;;;4980261;28;20353;-65
2023/07/23 04:52:41;;;;;;;3.67;1.47;;;20.80;40.90;;;;;;4981642;28;20187;-75
2023/07/23 04:55:09;;;;;;;5.07;1.30;;;20.80;41.00;;;;;;4984813;28;20178;-67
2023/07/23 04:57:36;;;;;;;2.63;1.37;;;20.50;42.10;;;;;;4986015;28;20190;-73
2023/07/23 05:00:07;;;;;;;3.10;1.40;;;20.80;41.00;;;;;;4989449;28;20613;-72
2023/07/23 05:02:34;;;;;;;5.13;1.53;;;21.00;40.50;;;;;;4986475;28;20190;-66
2023/07/23 05:05:02;;;;;;;4.67;1.77;;;20.80;40.30;;;;;;4987389;28;20261;-70
2023/07/23 05:07:29;;;;;;;5.33;1.90;;;20.40;41.90;;;;;;4985413;28;20186;-65
2023/07/23 05:09:56;;;;;;;6.53;2.17;;;20.30;42.80;;;;;;4981491;28;20269;-72
2023/07/23 05:12:24;;;;;;;2.77;1.40;;;20.80;42.50;;;;;;4981053;28;20195;-70
2023/07/23 05:14:51;;;;;;;5.93;1.87;;;20.50;43.10;;;;;;4985083;28;20237;-65
2023/07/23 05:17:19;;;;;;;3.67;1.90;;;20.30;43.80;;;;;;4984599;28;20193;-66
2023/07/23 05:19:49;;;;;;;8.10;1.90;;;20.70;43.20;;;;;;4986796;28;20308;-74
2023/07/23 05:22:16;;;;;;;6.60;1.87;;;20.40;43.10;;;;;;4980188;28;20183;-72
2023/07/23 05:24:43;;;;;;;6.30;1.60;;;20.50;43.00;;;;;;4978793;28;20194;-69
2023/07/23 05:27:10;;;;;;;4.67;1.47;;;20.80;43.50;;;;;;4983199;28;20234;-71
2023/07/23 05:29:38;;;;;;;4.37;1.70;;;20.40;44.10;;;;;;4987263;28;20188;-66
2023/07/23 05:32:06;;;;;;;6.30;1.73;;;20.30;45.60;;;;;;4988993;28;20239;-73
2023/07/23 05:34:33;;;;;;;7.13;1.70;;;20.30;46.60;;;;;;4978318;28;20194;-69
2023/07/23 05:37:01;;;;;;;5.93;1.90;;;20.70;46.30;;;;;;4981423;28;20723;-64
2023/07/23 05:39:28;;;;;;;4.80;1.30;;;20.10;46.70;;;;;;4982318;28;20202;-65
2023/07/23 05:41:55;;;;;;;4.30;1.57;;;20.00;48.30;;;;;;4978490;28;20175;-65
2023/07/23 05:44:25;;;;;;;4.70;1.47;;;19.90;48.80;;;;;;4984982;28;20190;-65
2023/07/23 05:46:52;;;;;;;2.77;1.33;;;19.80;47.70;;;;;;4985448;28;20233;-65
2023/07/23 05:49:20;;;;;;;4.10;1.73;;;19.90;48.80;;;;;;4983469;28;20194;-65
2023/07/23 05:51:48;;;;;;;5.43;1.67;;;20.30;49.60;;;;;;4984438;28;20210;-65
2023/07/23 05:54:15;;;;;;;6.20;1.90;;;20.30;50.50;;;;;;4983277;28;20182;-65
2023/07/23 05:56:42;;;;;;;6.40;1.80;;;20.20;49.70;;;;;;4986939;28;20232;-64
2023/07/23 05:59:10;;;;;;;4.93;2.30;;;20.00;50.20;;;;;;4988381;28;20283;-64
2023/07/23 06:01:37;;;;;;;4.80;1.73;;;20.30;49.50;;;;;;4989162;28;20182;-67
2023/07/23 06:04:05;;;;;;;3.40;1.40;;;19.80;51.10;;;;;;4981048;28;20222;-65
2023/07/23 06:06:32;;;;;;;3.37;1.50;;;19.80;49.40;;;;;;4991943;28;21832;-69
2023/07/23 06:08:59;;;;;;;4.07;1.67;;;19.40;51.10;;;;;;4988373;28;20193;-67
2023/07/23 06:11:27;;;;;;;6.47;1.60;;;19.30;51.60;;;;;;4988086;28;20190;-67
2023/07/23 06:13:54;;;;;;;5.53;1.50;;;18.90;52.60;;;;;;4983490;28;20209;-66
2023/07/23 06:16:21;;;;;;;5.97;1.90;;;18.50;52.70;;;;;;4989590;28;20273;-66
2023/07/23 06:18:49;;;;;;;5.37;1.23;;;17.90;54.40;;;;;;4989062;28;20210;-65
2023/07/23 06:21:16;;;;;;;5.83;1.53;;;17.30;56.50;;;;;;4980595;28;20277;-65
2023/07/23 06:23:43;;;;;;;7.40;1.73;;;17.20;57.50;;;;;;4985267;28;20251;-66
2023/07/23 06:26:11;;;;;;;5.33;1.83;;;17.40;56.90;;;;;;4990466;28;20648;-66
2023/07/23 06:28:38;;;;;;;10.13;1.63;;;17.00;58.60;;;;;;4990167;28;20209;-66
2023/07/23 06:31:05;;;;;;;5.87;1.60;;;16.70;61.20;;;;;;4984796;28;20240;-68
2023/07/23 06:33:33;;;;;;;8.10;1.87;;;16.40;62.70;;;;;;4980667;28;20197;-66
2023/07/23 06:36:02;;;;;;;9.90;2.17;;;16.20;63.40;;;;;;4984865;28;20213;-66
2023/07/23 06:38:29;;;;;;;16.87;2.33;;;16.10;63.70;;;;;;4985401;28;20224;-69
2023/07/23 06:40:57;;;;;;;8.10;1.87;;;16.10;64.60;;;;;;4988232;28;20193;-67
2023/07/23 06:43:24;;;;;;;10.80;2.10;;;16.00;65.40;;;;;;4991411;28;20220;-66
2023/07/23 06:45:52;;;;;;;7.73;2.03;;;15.80;65.90;;;;;;4978835;28;20192;-69
2023/07/23 06:48:21;;;;;;;10.73;2.00;;;15.80;66.50;;;;;;4991544;28;20186;-68
2023/07/23 06:50:49;;;;;;;7.03;1.90;;;15.80;66.40;;;;;;4995398;28;20652;-73
2023/07/23 06:53:16;;;;;;;8.20;2.10;;;15.70;66.90;;;;;;4990471;28;20197;-68
2023/07/23 06:56:07;;;;;;;8.70;2.10;;;15.60;67.10;;;;;;4988150;28;20275;-67
2023/07/23 06:58:37;;;;;;;7.20;2.17;;;15.50;67.70;;;;;;4965735;28;20212;-66
2023/07/23 07:01:07;;;;;;;7.63;1.80;;;15.40;68.10;;;;;;4989789;28;20665;-66
2023/07/23 07:03:34;;;;;;;10.47;2.17;;;15.30;69.00;;;;;;4986205;28;20622;-67
2023/07/23 07:06:03;;;;;;;6.60;2.57;;;15.30;69.50;;;;;;4987283;28;20190;-65
2023/07/23 07:08:30;;;;;;;8.07;2.20;;;15.20;70.00;;;;;;4988016;28;20305;-65
2023/07/23 07:10:59;;;;;;;7.80;2.43;;;15.20;70.00;;;;;;4980422;28;20185;-64
2023/07/23 07:13:28;;;;;;;7.70;2.20;;;15.20;70.30;;;;;;4985722;28;20186;-66
2023/07/23 07:15:55;;;;;;;9.43;2.67;;;15.10;70.60;;;;;;4982366;28;20198;-64
2023/07/23 07:18:22;;;;;;;12.73;2.87;;;15.10;71.30;;;;;;4981036;28;20691;-64
2023/07/23 07:21:01;;;;;;;4.93;2.00;;;15.00;71.60;;;;;;4989811;28;20648;-67
2023/07/23 07:23:29;;;;;;;10.20;2.50;;;15.00;71.70;;;;;;4980870;28;20190;-65
2023/07/23 07:25:58;;;;;;;11.23;2.70;;;15.00;71.40;;;;;;4991732;28;20186;-65
2023/07/23 07:28:27;;;;;;;12.37;2.50;;;15.00;71.60;;;;;;4985206;28;20668;-70
2023/07/23 07:30:59;;;;;;;5.77;2.50;;;14.90;71.50;;;;;;4983280;28;20218;-66
2023/07/23 07:33:30;;;;;;;8.50;2.47;;;14.90;71.50;;;;;;4983179;28;20190;-68
2023/07/23 07:35:59;;;;;;;7.33;2.67;;;14.80;71.50;;;;;;4984804;28;20179;-70
2023/07/23 07:38:27;;;;;;;11.37;2.80;;;14.80;71.70;;;;;;4984843;28;20719;-66
2023/07/23 07:40:57;;;;;;;6.57;2.23;;;14.80;72.10;;;;;;4990165;28;20217;-67
2023/07/23 07:43:25;;;;;;;17.50;2.57;;;14.70;72.20;;;;;;4985320;28;20801;-66
2023/07/23 07:45:54;;;;;;;10.50;2.57;;;14.70;72.60;;;;;;4984701;28;20194;-65
2023/07/23 07:48:21;;;;;;;8.97;2.30;;;14.70;72.60;;;;;;4990470;28;20201;-65
2023/07/23 07:50:59;;;;;;;10.00;3.17;;;14.70;72.80;;;;;;4989136;28;20190;-67
2023/07/23 07:53:27;;;;;;;8.10;3.20;;;14.70;72.80;;;;;;4988992;28;20841;-69
2023/07/23 07:55:54;;;;;;;5.70;2.33;;;14.70;72.90;;;;;;4985554;28;20735;-65
2023/07/23 07:58:25;;;;;;;9.30;2.73;;;14.60;72.80;;;;;;4978643;28;20206;-64
2023/07/23 08:00:57;;;;;;;7.03;2.20;;;14.60;72.80;;;;;;4986320;28;20202;-65
2023/07/23 08:03:27;;;;;;;9.57;2.43;;;14.60;73.00;;;;;;4990012;28;20670;-64
2023/07/23 08:05:55;;;;;;;6.40;2.60;;;14.60;73.10;;;;;;4986524;28;20315;-68
2023/07/23 08:08:31;;;;;;;16.47;2.93;;;14.60;73.50;;;;;;4982251;28;20190;-67
2023/07/23 08:11:00;;;;;;;6.50;2.50;;;14.60;73.70;;;;;;4978693;28;20266;-68
2023/07/23 08:13:29;;;;;;;6.13;2.53;;;14.60;73.70;;;;;;4985918;28;20235;-65
2023/07/23 08:15:57;;;;;;;6.83;2.33;;;14.60;73.80;;;;;;4984356;28;20187;-65
2023/07/23 08:18:24;;;;;;;13.57;3.90;;;14.50;74.20;;;;;;4984271;28;20224;-67
2023/07/23 08:20:54;;;;;;;8.97;2.80;;;14.50;74.30;;;;;;4981899;28;20637;-64
2023/07/23 08:23:22;;;;;;;11.43;2.70;;;14.50;74.60;;;;;;4985372;28;20190;-67
2023/07/23 08:25:53;;;;;;;5.57;2.30;;;14.50;74.90;;;;;;4982678;28;20267;-67
2023/07/23 08:28:29;;;;;;;8.43;2.67;;;14.50;75.10;;;;;;4985866;28;20190;-67
2023/07/23 08:30:58;;;;;;;6.70;2.00;;;14.50;75.10;;;;;;4987690;28;20708;-66
2023/07/23 08:33:28;;;;;;;7.30;2.47;;;14.40;75.20;;;;;;4978553;28;20195;-68
2023/07/23 08:35:57;;;;;;;9.73;2.50;;;14.40;75.40;;;;;;4987502;28;20191;-68
2023/07/23 08:38:26;;;;;;;6.37;2.47;;;14.40;75.50;;;;;;4986393;28;20659;-69
2023/07/23 08:41:02;;;;;;;11.93;3.70;;;14.40;75.50;;;;;;4987439;28;20670;-66
2023/07/23 08:44:05;;;;;;;9.13;4.13;;;14.40;75.50;;;;;;4982616;28;20264;-65
2023/07/23 08:46:32;;;;;;;11.47;3.00;;;14.30;75.60;;;;;;4983191;28;20186;-68
2023/07/23 08:49:05;;;;;;;9.77;2.70;;;14.30;75.80;;;;;;4985639;28;20183;-67
2023/07/23 08:51:41;;;;;;;11.20;2.70;;;14.40;76.10;;;;;;4987609;28;20214;-67
2023/07/23 08:54:09;;;;;;;9.67;2.67;;;14.40;76.20;;;;;;4984441;28;20321;-66
2023/07/23 08:56:38;;;;;;;10.63;2.07;;;14.50;76.20;;;;;;4989184;28;20194;-73
2023/07/23 08:59:09;;;;;;;15.93;2.77;;;14.50;76.00;;;;;;4984348;28;20239;-65
2023/07/23 09:01:41;;;;;;;9.10;2.57;;;14.60;75.80;;;;;;4991415;28;20667;-65
2023/07/23 09:04:13;;;;;;;9.53;2.77;;;14.60;75.50;;;;;;4987838;28;20678;-65
2023/07/23 09:06:44;;;;;;;11.53;3.13;;;14.60;75.40;;;;;;4983026;28;20183;-67
2023/07/23 09:09:13;;;;;;;6.37;3.00;;;14.60;75.20;;;;;;4987817;28;20200;-66
2023/07/23 09:11:41;;;;;;;9.67;2.47;;;14.60;75.20;;;;;;4988027;28;20214;-70
2023/07/23 09:14:18;;;;;;;9.33;2.90;;;14.60;74.90;;;;;;4981690;28;20249;-65
2023/07/23 09:16:48;;;;;;;6.90;2.60;;;14.70;75.00;;;;;;4983112;28;20228;-68
2023/07/23 09:19:23;;;;;;;9.13;3.17;;;14.70;75.20;;;;;;4979418;28;20231;-71
2023/07/23 09:21:50;;;;;;;7.67;3.50;;;14.70;76.10;;;;;;4980141;28;20310;-65
2023/07/23 09:24:18;;;;;;;14.10;3.40;;;14.60;77.80;;;;;;4983136;28;20194;-65
2023/07/23 09:26:46;;;;;;;10.97;2.87;;;14.40;78.90;;;;;;4982027;28;20545;-65
2023/07/23 09:29:14;;;;;;;10.47;3.73;;;14.20;80.80;;;;;;4980233;28;20667;-67
2023/07/23 09:31:45;;;;;;;11.50;3.50;;;14.20;81.80;;;;;;4987551;28;20620;-65
2023/07/23 09:34:18;;;;;;;10.83;4.23;;;14.00;82.30;;;;;;4983929;28;20253;-65
2023/07/23 09:36:46;;;;;;;12.83;4.00;;;13.90;83.00;;;;;;4985742;28;20185;-67
2023/07/23 09:39:13;;;;;;;11.60;4.07;;;13.80;83.30;;;;;;4984311;28;20867;-71
2023/07/23 09:41:40;;;;;;;10.90;4.60;;;13.70;83.00;;;;;;4983927;28;20268;-66
2023/07/23 09:44:14;;;;;;;13.60;4.50;;;13.80;83.20;;;;;;4982035;28;20197;-72
2023/07/23 09:46:47;;;;;;;10.77;4.13;;;13.70;83.20;;;;;;4985888;28;20245;-67
2023/07/23 09:49:15;;;;;;;8.60;4.43;;;13.70;83.10;;;;;;4980085;28;20736;-69
2023/07/23 09:51:52;;;;;;;14.57;4.80;;;13.70;83.20;;;;;;4987087;28;20187;-66
2023/07/23 09:54:21;;;;;;;12.40;4.90;;;13.70;83.40;;;;;;4985846;28;20189;-68
2023/07/23 09:56:52;;;;;;;13.47;4.43;;;13.60;83.70;;;;;;4987111;28;20178;-74
2023/07/23 09:59:20;;;;;;;14.10;4.67;;;13.60;83.90;;;;;;4987054;28;20218;-67
2023/07/23 10:01:48;;;;;;;9.83;4.83;;;13.50;84.20;;;;;;4981908;28;20221;-70
2023/07/23 10:04:17;;;;;;;14.27;5.17;;;13.50;83.80;;;;;;4985353;28;20190;-69
2023/07/23 10:06:47;;;;;;;12.07;4.90;;;13.50;85.50;;;;;;4984150;28;20657;-67
2023/07/23 10:09:16;;;;;;;12.87;5.40;;;13.40;86.70;;;;;;4982075;28;20225;-74
2023/07/23 10:11:43;;;;;;;9.80;5.07;;;13.30;87.20;;;;;;4984066;28;20237;-64
2023/07/23 10:14:11;;;;;;;10.20;5.70;;;13.20;87.60;;;;;;4981642;28;20656;-70
2023/07/23 10:16:41;;;;;;;12.93;5.90;;;13.20;87.90;;;;;;4981647;28;20290;-68
2023/07/23 10:19:09;;;;;;;17.43;6.63;;;13.20;88.30;;;;;;4983117;28;20202;-66
2023/07/23 10:21:37;;;;;;;12.30;6.47;;;13.20;88.50;;;;;;4979839;28;20183;-65
2023/07/23 10:24:06;;;;;;;12.67;6.30;;;13.20;88.60;;;;;;4979009;28;20190;-66
2023/07/23 10:26:41;;;;;;;14.73;7.27;;;13.20;88.60;;;;;;4980228;28;20201;-67
2023/07/23 10:29:14;;;;;;;16.10;6.80;;;13.20;88.70;;;;;;4982962;28;20178;-68
2023/07/23 10:31:45;;;;;;;14.37;7.60;;;13.20;88.90;;;;;;4982859;28;21198;-68
2023/07/23 10:34:29;;;;;;;18.87;7.67;;;13.20;89.10;;;;;;4982519;28;20216;-68
2023/07/23 10:37:21;;;;;;;13.43;8.07;;;13.20;89.30;;;;;;4989053;28;20312;-70
2023/07/23 10:40:04;;;;;;;14.80;8.20;;;13.20;89.50;;;;;;4979151;28;20230;-67
2023/07/23 10:42:40;;;;;;;15.97;9.63;;;13.20;89.60;;;;;;4983606;28;20649;-69
2023/07/23 10:45:23;;;;;;;15.43;9.20;;;13.10;89.50;;;;;;4983951;28;20190;-68
2023/07/23 10:47:58;;;;;;;18.63;8.27;;;13.00;89.50;;;;;;4988066;28;20637;-70
2023/07/23 10:50:29;;;;;;;13.30;7.80;;;13.00;89.30;;;;;;4986482;28;20200;-67
2023/07/23 10:53:05;;;;;;;11.47;8.20;;;13.00;89.40;;;;;;4980945;28;20196;-68
2023/07/23 10:55:33;;;;;;;10.57;8.63;;;13.00;89.30;;;;;;4982041;28;20730;-67
2023/07/23 10:58:11;;;;;;;9.40;8.50;;;13.00;89.50;;;;;;4985293;28;20546;-68
2023/07/23 11:00:44;;;;;;;13.93;8.67;;;13.00;89.50;;;;;;4986882;28;20197;-67
2023/07/23 11:03:18;;;;;;;13.00;11.70;;;13.00;89.70;;;;;;4988087;28;20565;-67
2023/07/23 11:05:46;;;;;;;13.23;12.03;;;13.00;89.80;;;;;;4983378;28;20225;-68
2023/07/23 11:08:18;;;;;;;13.20;11.83;;;13.00;90.20;;;;;;4984000;28;20190;-67
2023/07/23 11:11:09;;;;;;;13.77;12.27;;;12.90;90.40;;;;;;4984983;28;20230;-68
2023/07/23 11:13:37;;;;;;;14.90;13.50;;;12.90;90.60;;;;;;4987554;28;20268;-67
2023/07/23 11:16:05;;;;;;;17.47;15.73;;;12.90;90.90;;;;;;4987001;28;20219;-69
2023/07/23 11:18:34;;;;;;;22.80;20.47;;;12.90;91.10;;;;;;4985454;28;20626;-66
2023/07/23 11:21:05;;;;;;;25.43;23.23;;;12.90;91.40;;;;;;4986974;28;20657;-67
2023/07/23 11:23:33;;;;;;;27.27;24.50;;;12.90;91.60;;;;;;4987204;28;20190;-67
2023/07/23 11:26:00;;;;;;;29.83;27.50;;;12.80;91.70;;;;;;4985441;28;20185;-68
2023/07/23 11:28:28;;;;;;;32.53;29.83;;;12.80;91.90;;;;;;4988630;28;20197;-67
2023/07/23 11:30:56;;;;;;;35.73;33.07;;;12.80;92.00;;;;;;4981428;28;20222;-69
2023/07/23 11:33:33;;;;;;;39.10;35.50;;;12.70;92.00;;;;;;4985309;28;20196;-67
2023/07/23 11:36:01;;;;;;;41.87;38.63;;;12.80;92.20;;;;;;4988610;28;20212;-67
2023/07/23 11:38:37;;;;;;;44.17;41.30;;;12.70;92.20;;;;;;4984396;28;20194;-67
2023/07/23 11:41:04;;;;;;;46.67;43.37;;;12.70;92.30;;;;;;4986438;28;20317;-67
2023/07/23 11:43:34;;;;;;;53.43;49.87;;;12.80;92.40;;;;;;4988058;28;20212;-68
2023/07/23 11:46:02;;;;;;;64.40;60.27;;;12.80;92.40;;;;;;4981216;28;20709;-67
2023/07/23 11:48:30;;;;;;;68.60;64.20;;;12.80;92.50;;;;;;4984035;28;20197;-67
2023/07/23 11:50:59;;;;;;;76.10;71.13;;;12.80;92.70;;;;;;4986849;28;20186;-68
2023/07/23 11:53:39;;;;;;;75.90;71.67;;;12.80;92.80;;;;;;4982477;28;20217;-67
2023/07/23 11:56:09;;;;;;;76.50;71.83;;;12.80;92.80;;;;;;4982484;28;20198;-66
2023/07/23 11:58:38;;;;;;;85.20;79.60;;;12.80;92.80;;;;;;4985305;28;20285;-67
2023/07/23 12:01:06;;;;;;;88.27;83.27;;;12.80;92.90;;;;;;4988669;28;20218;-68
2023/07/23 12:03:39;;;;;;;94.27;88.53;;;12.70;92.90;;;;;;4985924;28;20273;-67
2023/07/23 12:06:07;;;;;;;97.47;92.07;;;12.70;92.90;;;;;;4980403;28;20224;-67
2023/07/23 12:08:38;;;;;;;96.13;90.80;;;12.80;92.90;;;;;;4985908;28;20199;-67
2023/07/23 12:11:15;;;;;;;96.70;91.40;;;12.80;92.90;;;;;;4982997;28;20559;-67
2023/07/23 12:13:57;;;;;;;101.00;95.50;;;12.70;92.80;;;;;;4987367;28;20213;-66
2023/07/23 12:16:38;;;;;;;103.47;97.73;;;12.80;92.80;;;;;;4987276;28;20190;-66
2023/07/23 12:19:08;;;;;;;119.03;112.30;;;12.80;92.80;;;;;;4981359;28;20660;-65
2023/07/23 12:21:38;;;;;;;118.93;111.93;;;12.80;92.80;;;;;;4985947;28;20613;-65
2023/07/23 12:24:19;;;;;;;122.97;115.33;;;12.80;92.80;;;;;;4982052;28;20281;-66
2023/07/23 12:26:54;;;;;;;125.13;118.60;;;12.80;92.90;;;;;;4982929;28;20185;-66
2023/07/23 12:29:23;;;;;;;124.50;117.87;;;12.80;92.90;;;;;;4988439;28;20268;-66
2023/07/23 12:32:11;;;;;;;124.37;117.70;;;12.80;92.80;;;;;;4986459;28;20261;-66
2023/07/23 12:34:44;;;;;;;131.73;124.37;;;12.80;92.90;;;;;;4987381;28;20222;-65
2023/07/23 12:37:12;;;;;;;130.00;122.37;;;12.80;92.90;;;;;;4989498;28;20719;-66
2023/07/23 12:39:40;;;;;;;135.27;127.80;;;12.80;93.00;;;;;;4987431;28;20233;-68
2023/07/23 12:42:07;;;;;;;140.00;132.37;;;12.90;93.00;;;;;;4983689;28;20182;-67
2023/07/23 12:44:35;;;;;;;143.27;135.13;;;12.90;93.00;;;;;;4985865;28;20185;-67
2023/07/23 12:47:02;;;;;;;139.47;132.03;;;12.90;93.00;;;;;;4979752;28;20225;-68
2023/07/23 12:49:29;;;;;;;131.53;124.07;;;12.90;93.00;;;;;;4987934;28;20604;-66
2023/07/23 12:51:57;;;;;;;130.20;122.87;;;12.90;92.90;;;;;;4983887;28;20186;-67